Time;durP1;ratioP1;P1;durP2;ratioP2;P2;SDS_P1;SDS_P2;PMS_P1;PMS_P2;Temp;Humidity;BMP_temperature;BMP_pressure;BME280_temperature;BME280_humidity;BME280_pressure;Samples;Min_cycle;Max_cycle;Signal;HPM_P1;HPM_P2
2021/12/19 00:04:31;;;;;;;23.48;12.70;;;7.50;99.90;;;;;;5070938;28;20436;-75
2021/12/19 00:09:41;;;;;;;20.42;10.25;;;7.50;99.90;;;;;;5073244;28;20049;-74
2021/12/19 00:12:07;;;;;;;21.90;11.82;;;7.60;99.90;;;;;;5072439;28;20039;-74
2021/12/19 00:14:33;;;;;;;21.52;11.88;;;7.60;99.90;;;;;;5073232;28;20040;-75
2021/12/19 00:16:59;;;;;;;18.20;10.43;;;7.60;99.90;;;;;;5072747;28;20556;-75
2021/12/19 00:19:25;;;;;;;30.08;12.63;;;7.60;99.90;;;;;;5054026;28;20058;-75
2021/12/19 00:21:51;;;;;;;21.83;12.25;;;7.50;99.90;;;;;;5055228;28;20127;-75
2021/12/19 00:24:18;;;;;;;26.05;11.70;;;7.50;99.90;;;;;;5055490;28;20102;-74
2021/12/19 00:26:45;;;;;;;21.33;9.70;;;7.60;99.90;;;;;;5038085;28;20049;-74
2021/12/19 00:29:11;;;;;;;12.00;7.45;;;7.60;99.90;;;;;;5055414;28;20087;-75
2021/12/19 00:31:37;;;;;;;13.30;6.95;;;7.50;99.90;;;;;;5072920;28;20488;-75
2021/12/19 00:34:04;;;;;;;8.30;4.50;;;7.50;99.90;;;;;;5050644;28;20053;-75
2021/12/19 00:36:30;;;;;;;8.27;4.97;;;7.50;99.90;;;;;;5034989;28;20045;-75
2021/12/19 00:38:57;;;;;;;7.72;3.63;;;7.50;99.90;;;;;;5034191;28;20196;-75
2021/12/19 00:41:23;;;;;;;8.55;3.47;;;7.50;99.90;;;;;;5052973;28;20132;-75
2021/12/19 00:43:55;;;;;;;4.57;3.55;;;7.50;99.90;;;;;;5071834;28;20045;-75
2021/12/19 00:46:23;;;;;;;9.20;3.25;;;7.50;99.90;;;;;;5054376;28;20048;-75
2021/12/19 00:48:54;;;;;;;8.15;2.80;;;7.50;99.90;;;;;;5051298;28;20041;-75
2021/12/19 00:51:24;;;;;;;5.32;2.65;;;7.50;99.90;;;;;;5042938;28;20041;-75
2021/12/19 00:53:52;;;;;;;4.80;2.30;;;7.40;99.90;;;;;;5034461;28;20060;-75
2021/12/19 00:56:18;;;;;;;6.35;2.33;;;7.50;99.90;;;;;;5018446;28;20048;-75
2021/12/19 00:58:44;;;;;;;2.67;1.40;;;7.40;99.90;;;;;;5034887;28;20053;-74
2021/12/19 01:01:12;;;;;;;5.00;1.77;;;7.40;99.90;;;;;;5052077;28;20187;-75
2021/12/19 01:03:43;;;;;;;1.45;0.90;;;7.40;99.90;;;;;;5050310;28;20052;-75
2021/12/19 01:06:09;;;;;;;1.52;1.10;;;7.40;99.90;;;;;;5058534;28;20515;-75
2021/12/19 01:08:35;;;;;;;1.70;0.95;;;7.40;99.90;;;;;;5057342;28;20051;-75
2021/12/19 01:11:01;;;;;;;3.65;1.10;;;7.40;99.90;;;;;;5058362;28;20127;-75
2021/12/19 01:13:27;;;;;;;2.75;1.20;;;7.30;99.90;;;;;;5058203;28;20056;-75
2021/12/19 01:15:55;;;;;;;2.10;1.38;;;7.30;99.90;;;;;;5075034;28;20044;-74
2021/12/19 01:18:21;;;;;;;3.58;1.00;;;7.40;99.90;;;;;;5075466;28;20484;-75
2021/12/19 01:20:47;;;;;;;0.95;0.82;;;7.30;99.90;;;;;;5057878;28;20056;-75
2021/12/19 01:23:13;;;;;;;1.67;1.10;;;7.30;99.90;;;;;;5057060;28;20056;-75
2021/12/19 01:25:39;;;;;;;2.65;1.30;;;7.30;99.90;;;;;;5058216;28;20043;-74
2021/12/19 01:28:05;;;;;;;3.13;1.42;;;7.30;99.90;;;;;;5057933;28;20522;-75
2021/12/19 01:30:31;;;;;;;3.67;1.30;;;7.30;99.90;;;;;;5057639;28;20083;-75
2021/12/19 01:32:57;;;;;;;4.30;1.05;;;7.40;99.90;;;;;;5041388;28;20081;-75
2021/12/19 01:35:24;;;;;;;4.43;1.42;;;7.30;99.90;;;;;;5053423;28;20502;-75
2021/12/19 01:37:51;;;;;;;6.18;1.45;;;7.30;99.90;;;;;;5055772;28;20045;-75
2021/12/19 01:40:19;;;;;;;1.85;1.40;;;7.30;99.90;;;;;;5055583;28;20044;-75
2021/12/19 01:42:48;;;;;;;2.55;1.00;;;7.30;99.90;;;;;;5041991;28;20064;-75
2021/12/19 01:45:22;;;;;;;1.55;0.82;;;7.30;99.90;;;;;;5055629;28;20507;-75
2021/12/19 01:47:49;;;;;;;2.35;1.17;;;7.30;99.90;;;;;;5037819;28;20053;-74
2021/12/19 01:50:15;;;;;;;1.27;0.90;;;7.30;99.90;;;;;;5052581;28;20050;-75
2021/12/19 01:52:42;;;;;;;2.63;1.20;;;7.40;99.90;;;;;;5037517;28;20499;-75
2021/12/19 01:55:09;;;;;;;3.72;1.30;;;7.40;99.90;;;;;;5037781;28;20044;-75
2021/12/19 01:57:35;;;;;;;2.00;1.08;;;7.30;99.90;;;;;;5036399;28;20057;-75
2021/12/19 02:00:03;;;;;;;2.80;1.17;;;7.30;99.90;;;;;;5037457;28;20493;-75
2021/12/19 02:02:29;;;;;;;2.15;0.98;;;7.30;99.90;;;;;;5043743;28;20055;-75
2021/12/19 02:04:55;;;;;;;1.30;1.20;;;7.30;99.90;;;;;;5039469;28;20048;-75
2021/12/19 02:07:21;;;;;;;4.28;1.52;;;7.30;99.90;;;;;;5057347;28;20086;-75
2021/12/19 02:09:46;;;;;;;3.65;1.13;;;7.30;99.90;;;;;;5075275;28;20083;-75
2021/12/19 02:12:13;;;;;;;2.38;1.20;;;7.30;99.90;;;;;;5056452;28;20440;-75
2021/12/19 02:14:39;;;;;;;4.80;1.50;;;7.30;99.90;;;;;;5057125;28;20488;-75
2021/12/19 02:17:05;;;;;;;4.60;1.55;;;7.30;99.90;;;;;;5039538;28;20088;-75
2021/12/19 02:19:32;;;;;;;5.93;1.52;;;7.30;99.90;;;;;;5074146;28;20484;-74
2021/12/19 02:21:58;;;;;;;3.13;1.20;;;7.30;99.90;;;;;;5074839;28;20048;-74
2021/12/19 02:24:24;;;;;;;2.33;1.15;;;7.30;99.90;;;;;;5055974;28;20049;-75
2021/12/19 02:26:50;;;;;;;2.13;0.88;;;7.30;99.90;;;;;;5056918;28;20063;-75
2021/12/19 02:29:17;;;;;;;2.38;1.05;;;7.30;99.90;;;;;;5053221;28;20037;-75
2021/12/19 02:31:42;;;;;;;2.78;1.25;;;7.30;99.90;;;;;;5026727;28;20052;-75
2021/12/19 02:34:17;;;;;;;3.17;1.27;;;7.30;99.90;;;;;;5074329;28;20037;-75
2021/12/19 02:50:18;;;;;;;3.92;1.40;;;7.20;99.90;;;;;;5056269;28;20098;-74
2021/12/19 02:52:44;;;;;;;1.85;1.17;;;7.20;99.90;;;;;;5073280;28;20517;-75
2021/12/19 02:55:13;;;;;;;1.63;0.90;;;7.30;99.90;;;;;;5056427;28;20075;-74
2021/12/19 02:57:40;;;;;;;2.42;1.00;;;7.20;99.90;;;;;;5056169;28;20048;-74
2021/12/19 03:00:11;;;;;;;2.53;0.60;;;7.20;99.90;;;;;;5073368;28;20393;-75
2021/12/19 03:02:37;;;;;;;1.33;0.50;;;7.20;99.90;;;;;;5056334;28;20553;-75
2021/12/19 03:05:03;;;;;;;0.63;0.40;;;7.20;99.90;;;;;;5055990;28;20044;-74
2021/12/19 03:07:30;;;;;;;2.10;0.30;;;7.10;99.90;;;;;;5055248;28;20123;-75
2021/12/19 03:18:06;;;;;;;5.93;1.75;;;7.00;99.90;;;;;;5053654;28;20148;-75
2021/12/19 03:20:33;;;;;;;3.25;1.02;;;7.00;99.90;;;;;;5052527;28;20378;-75
2021/12/19 03:22:59;;;;;;;4.57;1.58;;;7.00;99.90;;;;;;5051838;28;20127;-74
2021/12/19 03:25:26;;;;;;;3.22;1.45;;;7.00;99.90;;;;;;5052529;28;20128;-75
2021/12/19 03:27:52;;;;;;;3.10;1.63;;;7.00;99.90;;;;;;5035098;28;20049;-75
2021/12/19 03:30:18;;;;;;;3.17;1.42;;;7.00;99.90;;;;;;5052400;28;20045;-75
2021/12/19 03:32:44;;;;;;;3.10;1.13;;;7.00;99.90;;;;;;5052863;28;20083;-75
2021/12/19 03:35:10;;;;;;;2.28;1.25;;;7.00;99.90;;;;;;5052681;28;20087;-74
2021/12/19 03:37:37;;;;;;;3.85;1.40;;;6.90;99.90;;;;;;5052157;28;20049;-75
2021/12/19 03:40:11;;;;;;;4.32;1.48;;;7.00;99.90;;;;;;5052318;28;20049;-75
2021/12/19 03:42:47;;;;;;;7.85;1.85;;;6.90;99.90;;;;;;5051585;28;20041;-75
2021/12/19 03:45:17;;;;;;;5.00;1.73;;;7.00;99.90;;;;;;5052150;28;20049;-75
2021/12/19 03:47:44;;;;;;;5.20;1.02;;;6.90;99.90;;;;;;5052180;28;20053;-76
2021/12/19 03:50:15;;;;;;;5.95;1.15;;;6.90;99.90;;;;;;5051133;28;20060;-75
2021/12/19 03:52:41;;;;;;;3.10;1.35;;;6.90;99.90;;;;;;5053763;28;20041;-75
2021/12/19 03:55:07;;;;;;;9.30;1.70;;;6.90;99.90;;;;;;5052084;28;20048;-75
2021/12/19 03:57:33;;;;;;;2.38;0.90;;;6.90;99.90;;;;;;5052094;28;20443;-76
2021/12/19 03:59:59;;;;;;;5.07;1.60;;;6.90;99.90;;;;;;5052109;28;20048;-75
2021/12/19 04:02:26;;;;;;;6.90;1.33;;;6.90;99.90;;;;;;5052225;28;20492;-75
2021/12/19 04:04:54;;;;;;;5.03;1.27;;;6.90;99.90;;;;;;5051069;28;20057;-75
2021/12/19 04:07:20;;;;;;;2.28;1.15;;;6.80;99.90;;;;;;5053394;28;20063;-75
2021/12/19 04:09:46;;;;;;;7.30;2.50;;;6.90;99.90;;;;;;5052440;28;20044;-75
2021/12/19 04:12:12;;;;;;;6.18;1.40;;;6.90;99.90;;;;;;5051004;28;20057;-76
2021/12/19 04:14:38;;;;;;;5.38;2.00;;;6.90;99.90;;;;;;5051834;28;20098;-75
2021/12/19 04:17:04;;;;;;;5.72;2.08;;;6.90;99.90;;;;;;5054406;28;20048;-75
2021/12/19 04:19:30;;;;;;;5.70;1.38;;;6.90;99.90;;;;;;5037988;28;20040;-75
2021/12/19 04:21:56;;;;;;;5.35;1.42;;;6.90;99.90;;;;;;5038963;28;20048;-75
2021/12/19 04:24:22;;;;;;;1.23;0.95;;;6.90;99.90;;;;;;5054352;28;20044;-75
2021/12/19 04:26:48;;;;;;;8.43;1.50;;;6.90;99.90;;;;;;5055006;28;20052;-75
2021/12/19 04:29:14;;;;;;;7.57;1.60;;;6.90;99.90;;;;;;5055030;28;20051;-74
2021/12/19 04:31:40;;;;;;;5.53;1.00;;;6.90;99.90;;;;;;5037639;28;20139;-75
2021/12/19 04:34:06;;;;;;;1.77;0.80;;;6.90;99.90;;;;;;5054741;28;20052;-75
2021/12/19 04:36:38;;;;;;;6.55;0.90;;;6.90;99.90;;;;;;5055361;28;20053;-75
2021/12/19 04:39:21;;;;;;;4.10;1.15;;;6.90;99.90;;;;;;5038307;28;20135;-75
2021/12/19 04:42:49;;;;;;;9.73;1.58;;;6.90;99.90;;;;;;5059104;28;20049;-75
2021/12/19 05:03:35;;;;;;;8.38;2.50;;;7.00;99.90;;;;;;5058334;28;20110;-75
2021/12/19 05:06:13;;;;;;;10.57;2.38;;;7.00;99.90;;;;;;5041223;28;20128;-75
2021/12/19 05:14:44;;;;;;;11.15;2.05;;;7.00;99.90;;;;;;5054156;28;20504;-75
2021/12/19 05:17:05;;;;;;;10.10;2.92;;;7.00;99.90;;;;;;5052667;28;20049;-75
2021/12/19 05:19:44;;;;;;;11.77;2.50;;;7.00;99.90;;;;;;5047698;28;20102;-75
2021/12/19 05:22:10;;;;;;;7.20;2.65;;;7.00;99.90;;;;;;5075105;28;20512;-75
2021/12/19 05:27:05;;;;;;;14.60;4.07;;;7.00;99.90;;;;;;5058083;28;20106;-76
2021/12/19 05:29:32;;;;;;;15.93;4.47;;;7.00;99.90;;;;;;5075279;28;20403;-75
2021/12/19 05:31:58;;;;;;;14.32;4.72;;;7.00;99.90;;;;;;5057931;28;20044;-75
2021/12/19 05:34:25;;;;;;;11.15;4.35;;;7.10;99.90;;;;;;5056736;28;20052;-75
2021/12/19 05:47:36;;;;;;;18.98;6.25;;;7.20;99.90;;;;;;5057879;28;20044;-76
2021/12/19 05:50:06;;;;;;;18.88;7.68;;;7.30;99.90;;;;;;5039289;28;20041;-75
2021/12/19 05:52:32;;;;;;;27.52;7.88;;;7.30;99.90;;;;;;5040610;28;20041;-75
2021/12/19 05:54:57;;;;;;;21.95;7.85;;;7.30;99.90;;;;;;5057512;28;20071;-75
2021/12/19 05:57:23;;;;;;;20.95;9.25;;;7.30;99.90;;;;;;5056652;28;20056;-75
2021/12/19 05:59:50;;;;;;;23.73;9.32;;;7.30;99.90;;;;;;5040857;28;20051;-75
2021/12/19 06:02:17;;;;;;;20.23;7.38;;;7.30;99.90;;;;;;5057370;28;20060;-75
2021/12/19 06:04:43;;;;;;;21.15;8.95;;;7.30;99.90;;;;;;5056235;28;20122;-75
2021/12/19 06:07:09;;;;;;;22.30;8.60;;;7.30;99.90;;;;;;5075059;28;20071;-75
2021/12/19 06:09:35;;;;;;;24.40;9.55;;;7.30;99.90;;;;;;5074508;28;20075;-75
2021/12/19 06:12:00;;;;;;;20.23;7.85;;;7.30;99.90;;;;;;5057488;28;20051;-75
2021/12/19 06:14:32;;;;;;;22.50;6.55;;;7.30;99.90;;;;;;5075265;28;20424;-75
2021/12/19 06:16:58;;;;;;;18.35;7.55;;;7.40;99.90;;;;;;5074036;28;20044;-75
2021/12/19 06:19:24;;;;;;;11.13;5.32;;;7.30;99.90;;;;;;5074514;28;20044;-75
2021/12/19 06:21:50;;;;;;;17.42;6.53;;;7.30;99.90;;;;;;5057000;28;20084;-75
2021/12/19 06:24:16;;;;;;;11.52;4.80;;;7.30;99.90;;;;;;5056056;28;20087;-76
2021/12/19 06:26:42;;;;;;;20.88;4.40;;;7.30;99.90;;;;;;5056970;28;20044;-75
2021/12/19 06:29:07;;;;;;;17.30;5.10;;;7.30;99.90;;;;;;5056927;28;20040;-75
2021/12/19 06:31:33;;;;;;;13.23;3.35;;;7.30;99.90;;;;;;5052637;28;20041;-76
2021/12/19 06:33:59;;;;;;;10.70;3.13;;;7.20;99.90;;;;;;5038489;28;20049;-75
2021/12/19 06:36:25;;;;;;;13.05;3.95;;;7.30;99.90;;;;;;5053416;28;20052;-75
2021/12/19 06:38:52;;;;;;;16.60;3.88;;;7.20;99.90;;;;;;5053784;28;20102;-75
2021/12/19 06:41:18;;;;;;;15.80;3.90;;;7.20;99.90;;;;;;5036990;28;20089;-75
2021/12/19 06:43:44;;;;;;;13.50;3.83;;;7.20;99.90;;;;;;5036668;28;20045;-76
2021/12/19 06:46:10;;;;;;;22.88;4.85;;;7.20;99.90;;;;;;5052278;28;20047;-75
2021/12/19 06:48:35;;;;;;;15.00;4.28;;;7.20;99.90;;;;;;5021643;28;20052;-75
2021/12/19 06:51:01;;;;;;;13.43;4.00;;;7.30;99.90;;;;;;5056385;28;20138;-75
2021/12/19 06:53:27;;;;;;;16.38;4.85;;;7.20;99.90;;;;;;5073774;28;20045;-75
2021/12/19 06:55:53;;;;;;;15.35;4.50;;;7.20;99.90;;;;;;5056370;28;20067;-75
2021/12/19 06:58:19;;;;;;;17.50;4.40;;;7.20;99.90;;;;;;5052596;28;20056;-75
2021/12/19 07:00:45;;;;;;;17.65;4.38;;;7.20;99.90;;;;;;5053251;28;20045;-75
2021/12/19 07:03:11;;;;;;;19.58;5.03;;;7.20;99.90;;;;;;5056401;28;20048;-75
2021/12/19 07:05:38;;;;;;;20.90;4.93;;;7.20;99.90;;;;;;5039381;28;20054;-75
2021/12/19 07:08:04;;;;;;;16.02;4.35;;;7.20;99.90;;;;;;5073275;28;20041;-75
2021/12/19 07:10:30;;;;;;;19.98;4.45;;;7.20;99.90;;;;;;5056415;28;20122;-75
2021/12/19 07:12:55;;;;;;;22.52;6.18;;;7.20;99.90;;;;;;5055125;28;20484;-75
2021/12/19 07:15:24;;;;;;;21.52;5.00;;;7.20;99.90;;;;;;5055967;28;20101;-75
2021/12/19 07:17:51;;;;;;;18.90;4.32;;;7.20;99.90;;;;;;5055614;28;20408;-75
2021/12/19 07:20:17;;;;;;;17.60;4.50;;;7.10;99.90;;;;;;5072735;28;20051;-75
2021/12/19 07:22:42;;;;;;;13.25;3.67;;;7.10;99.90;;;;;;5055723;28;20052;-75
2021/12/19 07:25:08;;;;;;;16.80;4.53;;;7.20;99.90;;;;;;5073870;28;20132;-75
2021/12/19 07:27:34;;;;;;;14.40;3.45;;;7.20;99.90;;;;;;5072832;28;20565;-75
2021/12/19 07:30:00;;;;;;;14.88;3.72;;;7.10;99.90;;;;;;5073796;28;20045;-75
2021/12/19 07:32:26;;;;;;;21.15;4.35;;;7.20;99.90;;;;;;5073536;28;20100;-75
2021/12/19 07:34:52;;;;;;;15.10;4.10;;;7.20;99.90;;;;;;5072693;28;20079;-75
2021/12/19 07:37:21;;;;;;;12.75;3.15;;;7.20;99.90;;;;;;5073781;28;20123;-75
2021/12/19 07:40:09;;;;;;;11.95;3.10;;;7.10;99.90;;;;;;5055637;28;20048;-75
2021/12/19 07:42:35;;;;;;;14.88;3.40;;;7.10;99.90;;;;;;5038003;28;20033;-75
2021/12/19 07:45:00;;;;;;;16.60;4.25;;;7.10;99.90;;;;;;5055647;28;20362;-75
2021/12/19 07:47:26;;;;;;;13.40;3.42;;;7.10;99.90;;;;;;5055763;28;20040;-75
2021/12/19 07:49:52;;;;;;;19.60;3.97;;;7.10;99.90;;;;;;5051289;28;20128;-75
2021/12/19 07:52:17;;;;;;;10.15;2.67;;;7.10;99.90;;;;;;5035630;28;20059;-75
2021/12/19 07:54:44;;;;;;;18.85;4.38;;;7.10;99.90;;;;;;5053385;28;20126;-73
2021/12/19 07:57:10;;;;;;;18.33;3.33;;;7.10;99.90;;;;;;5053561;28;20602;-73
2021/12/19 07:59:36;;;;;;;21.02;3.22;;;7.10;99.90;;;;;;5055073;28;20056;-73
2021/12/19 08:02:04;;;;;;;18.83;3.75;;;7.10;99.90;;;;;;5037725;28;20037;-73
2021/12/19 08:04:30;;;;;;;12.85;3.50;;;7.10;99.90;;;;;;5038593;28;20054;-73
2021/12/19 08:06:56;;;;;;;12.98;3.03;;;7.10;99.90;;;;;;5055423;28;20131;-73
2021/12/19 08:09:24;;;;;;;19.73;3.95;;;7.10;99.90;;;;;;5054415;28;20087;-74
2021/12/19 08:11:51;;;;;;;18.45;3.70;;;7.10;99.90;;;;;;5055220;28;20084;-74
2021/12/19 08:14:17;;;;;;;13.13;3.15;;;7.10;99.90;;;;;;5056524;28;20049;-74
2021/12/19 08:16:44;;;;;;;17.10;3.35;;;7.10;99.90;;;;;;5058015;28;20503;-74
2021/12/19 08:19:11;;;;;;;17.95;3.03;;;7.20;99.90;;;;;;5076886;28;20514;-74
2021/12/19 08:21:37;;;;;;;18.08;3.20;;;7.20;99.90;;;;;;5077038;28;20045;-74
2021/12/19 08:24:09;;;;;;;14.30;3.15;;;7.20;99.90;;;;;;5056241;28;20384;-73
2021/12/19 08:26:36;;;;;;;13.00;3.53;;;7.20;99.90;;;;;;5049396;28;20515;-74
2021/12/19 08:29:02;;;;;;;21.45;3.15;;;7.20;99.90;;;;;;5050525;28;20048;-74
2021/12/19 08:31:28;;;;;;;12.27;3.00;;;7.20;99.90;;;;;;5047698;28;20530;-74
2021/12/19 08:33:54;;;;;;;19.80;3.22;;;7.20;99.90;;;;;;5030882;28;20059;-74
2021/12/19 08:36:20;;;;;;;20.05;4.40;;;7.20;99.90;;;;;;5047941;28;20036;-73
2021/12/19 08:38:47;;;;;;;14.13;3.08;;;7.20;99.90;;;;;;5046935;28;20044;-73
2021/12/19 08:41:13;;;;;;;17.08;3.83;;;7.20;99.90;;;;;;5032039;28;20094;-74
2021/12/19 08:43:39;;;;;;;17.52;3.75;;;7.20;99.90;;;;;;5054677;28;20483;-74
2021/12/19 08:46:07;;;;;;;12.20;2.38;;;7.20;99.90;;;;;;5041392;28;20051;-74
2021/12/19 08:48:33;;;;;;;19.17;3.20;;;7.30;99.90;;;;;;5050333;28;20400;-74
2021/12/19 08:50:58;;;;;;;21.95;3.58;;;7.20;99.90;;;;;;5049114;28;20483;-74
2021/12/19 08:53:24;;;;;;;15.25;3.65;;;7.20;99.90;;;;;;5064753;28;20048;-74
2021/12/19 08:55:50;;;;;;;18.63;4.45;;;7.30;99.90;;;;;;5047678;28;20194;-73
2021/12/19 08:58:16;;;;;;;18.60;4.10;;;7.30;99.90;;;;;;5051010;28;20076;-73
2021/12/19 09:00:42;;;;;;;13.32;3.53;;;7.30;99.90;;;;;;5066903;28;20080;-74
2021/12/19 09:03:09;;;;;;;18.77;3.40;;;7.30;99.90;;;;;;5047686;28;20131;-74
2021/12/19 09:05:35;;;;;;;13.10;3.95;;;7.30;99.90;;;;;;5064941;28;20083;-73
2021/12/19 09:08:02;;;;;;;14.70;3.08;;;7.40;99.90;;;;;;5047286;28;20076;-74
2021/12/19 09:10:27;;;;;;;17.50;3.50;;;7.40;99.90;;;;;;5047314;28;20370;-74
2021/12/19 09:12:53;;;;;;;16.60;3.80;;;7.40;99.90;;;;;;5057292;28;20135;-74
2021/12/19 09:15:20;;;;;;;17.10;3.35;;;7.40;99.90;;;;;;5058835;28;20076;-74
2021/12/19 09:17:47;;;;;;;26.55;3.83;;;7.40;99.90;;;;;;5075815;28;20136;-74
2021/12/19 09:20:13;;;;;;;13.30;3.42;;;7.40;99.90;;;;;;5073422;28;20052;-74
2021/12/19 09:22:39;;;;;;;20.73;3.75;;;7.40;99.90;;;;;;5075806;28;20519;-74
2021/12/19 09:25:06;;;;;;;22.73;3.88;;;7.50;99.90;;;;;;5058069;28;20132;-74
2021/12/19 09:27:32;;;;;;;16.48;3.58;;;7.50;99.90;;;;;;5074376;28;20195;-74
2021/12/19 09:29:58;;;;;;;16.85;3.83;;;7.50;99.90;;;;;;5047439;28;20131;-74
2021/12/19 09:32:24;;;;;;;12.68;3.33;;;7.50;99.90;;;;;;5047942;28;20052;-74
2021/12/19 09:34:50;;;;;;;16.20;3.95;;;7.50;99.90;;;;;;5048664;28;20040;-74
2021/12/19 09:37:15;;;;;;;15.70;3.38;;;7.50;99.90;;;;;;5075577;28;20047;-74
2021/12/19 09:39:42;;;;;;;18.30;4.28;;;7.50;99.90;;;;;;5075803;28;20402;-74
2021/12/19 09:42:10;;;;;;;15.02;3.22;;;7.50;99.90;;;;;;5053793;28;20166;-74
2021/12/19 09:44:37;;;;;;;19.98;3.60;;;7.50;99.90;;;;;;5065603;28;20521;-74
2021/12/19 09:47:05;;;;;;;13.27;3.70;;;7.50;99.90;;;;;;5065808;28;20070;-74
2021/12/19 09:49:33;;;;;;;11.00;2.90;;;7.50;99.90;;;;;;5046726;28;20124;-74
2021/12/19 09:51:59;;;;;;;16.63;3.45;;;7.50;99.90;;;;;;5057676;28;20392;-74
2021/12/19 09:54:24;;;;;;;12.60;2.95;;;7.50;99.90;;;;;;5057599;28;20083;-74
2021/12/19 09:56:50;;;;;;;18.92;3.40;;;7.60;99.90;;;;;;5053192;28;20088;-74
2021/12/19 09:59:19;;;;;;;11.20;3.25;;;7.60;99.90;;;;;;5063964;28;20045;-74
2021/12/19 10:01:46;;;;;;;16.98;2.80;;;7.60;99.90;;;;;;5045353;28;20060;-74
2021/12/19 10:04:41;;;;;;;17.80;3.08;;;7.60;99.90;;;;;;5046339;28;20265;-74
2021/12/19 10:07:13;;;;;;;22.30;4.10;;;7.60;99.90;;;;;;5053706;28;20079;-74
2021/12/19 10:09:49;;;;;;;15.88;4.18;;;7.60;99.90;;;;;;5036429;28;20088;-73
2021/12/19 10:15:01;;;;;;;15.48;3.58;;;7.70;99.90;;;;;;5046788;28;20053;-74
2021/12/19 10:17:27;;;;;;;14.95;2.97;;;7.70;99.90;;;;;;5063773;28;20054;-75
2021/12/19 10:19:55;;;;;;;16.17;3.42;;;7.70;99.90;;;;;;5047152;28;20069;-74
2021/12/19 10:22:32;;;;;;;17.20;3.28;;;7.70;99.90;;;;;;5074955;28;20119;-73
2021/12/19 10:25:20;;;;;;;13.77;4.00;;;7.70;99.90;;;;;;5073825;28;20044;-74
2021/12/19 10:27:48;;;;;;;21.30;4.32;;;7.70;99.90;;;;;;5039365;28;20041;-74
2021/12/19 10:30:20;;;;;;;19.42;3.70;;;7.70;99.90;;;;;;5045249;28;20043;-73
2021/12/19 10:32:50;;;;;;;24.05;4.03;;;7.80;99.90;;;;;;5063628;28;20488;-73
2021/12/19 10:35:31;;;;;;;18.55;3.30;;;7.80;99.90;;;;;;5066862;28;20043;-73
2021/12/19 10:37:59;;;;;;;20.15;3.53;;;7.80;99.90;;;;;;5055134;28;20049;-73
2021/12/19 10:40:26;;;;;;;20.83;4.32;;;7.80;99.90;;;;;;5074160;28;20548;-73
2021/12/19 10:42:58;;;;;;;21.95;4.28;;;7.80;99.90;;;;;;5072653;28;20120;-73
2021/12/19 10:45:48;;;;;;;22.80;3.72;;;7.80;99.90;;;;;;5065277;28;20752;-73
2021/12/19 10:48:28;;;;;;;22.35;3.47;;;7.80;99.90;;;;;;5044402;28;20052;-73
2021/12/19 10:51:02;;;;;;;26.63;5.43;;;7.80;99.90;;;;;;5045861;28;20060;-73
2021/12/19 10:53:30;;;;;;;25.63;3.93;;;7.90;99.90;;;;;;5053819;28;20052;-73
2021/12/19 10:55:57;;;;;;;31.17;4.13;;;7.90;99.90;;;;;;5074143;28;20072;-74
2021/12/19 10:58:31;;;;;;;22.90;3.83;;;7.90;99.90;;;;;;5068917;28;20048;-74
2021/12/19 11:00:56;;;;;;;18.67;3.97;;;8.10;99.90;;;;;;5064167;28;20104;-74
2021/12/19 11:03:51;;;;;;;19.10;3.35;;;7.90;99.90;;;;;;5063177;28;20567;-74
2021/12/19 11:06:27;;;;;;;13.25;3.63;;;7.90;99.90;;;;;;5050018;28;20060;-74
2021/12/19 11:08:54;;;;;;;9.13;2.88;;;7.90;99.90;;;;;;5036226;28;20049;-74
2021/12/19 11:11:43;;;;;;;18.08;4.47;;;7.90;99.90;;;;;;5061183;28;20088;-73
2021/12/19 11:14:13;;;;;;;20.20;3.38;;;8.00;99.90;;;;;;5065677;28;20040;-74
2021/12/19 11:16:39;;;;;;;23.10;3.75;;;8.00;99.90;;;;;;5061982;28;20060;-74
2021/12/19 11:19:05;;;;;;;10.15;3.08;;;8.00;99.90;;;;;;5043172;28;20510;-74
2021/12/19 11:21:34;;;;;;;15.63;2.88;;;8.00;99.90;;;;;;5071783;28;20033;-74
2021/12/19 11:24:02;;;;;;;13.18;2.35;;;8.00;99.90;;;;;;5073831;28;20044;-75
2021/12/19 11:26:29;;;;;;;16.80;2.92;;;8.00;99.90;;;;;;5051772;28;20459;-74
2021/12/19 11:28:56;;;;;;;10.45;3.20;;;8.00;99.90;;;;;;5042039;28;20053;-74
2021/12/19 11:31:26;;;;;;;15.07;2.70;;;8.00;99.90;;;;;;5063538;28;20052;-74
2021/12/19 11:34:21;;;;;;;22.05;2.90;;;8.00;99.90;;;;;;5062773;28;20051;-74
2021/12/19 11:37:10;;;;;;;12.98;2.75;;;7.10;99.90;;;;;;5021052;28;20048;-74
2021/12/19 11:39:48;;;;;;;29.10;4.75;;;7.90;99.90;;;;;;5055243;28;20150;-74
2021/12/19 11:42:17;;;;;;;15.68;3.55;;;8.00;99.90;;;;;;5072848;28;20119;-74
2021/12/19 11:45:02;;;;;;;13.90;2.58;;;8.00;99.90;;;;;;5050072;28;20102;-74
2021/12/19 11:47:53;;;;;;;20.40;3.75;;;8.00;99.90;;;;;;5040563;28;20404;-73
2021/12/19 11:50:28;;;;;;;12.48;2.55;;;8.00;99.90;;;;;;5046688;28;20049;-73
2021/12/19 11:53:17;;;;;;;17.70;4.25;;;8.00;99.90;;;;;;5038988;28;20047;-74
2021/12/19 11:56:16;;;;;;;17.00;3.63;;;8.00;99.90;;;;;;5037564;28;20052;-73
2021/12/19 11:58:50;;;;;;;16.83;2.95;;;8.10;99.90;;;;;;5052167;28;20068;-74
2021/12/19 12:01:23;;;;;;;16.80;2.63;;;8.10;99.90;;;;;;5043853;28;20045;-72
2021/12/19 12:03:52;;;;;;;17.33;3.00;;;8.10;99.90;;;;;;5045478;28;20049;-73
2021/12/19 12:06:20;;;;;;;22.63;3.45;;;8.10;99.90;;;;;;5043665;28;20048;-74
2021/12/19 12:09:07;;;;;;;21.30;3.92;;;8.10;99.90;;;;;;5072340;28;20480;-73
2021/12/19 12:11:35;;;;;;;17.80;2.72;;;8.10;99.90;;;;;;5051715;28;20060;-74
2021/12/19 12:14:36;;;;;;;20.30;3.20;;;8.10;99.90;;;;;;5041286;28;20491;-73
2021/12/19 12:17:07;;;;;;;15.18;2.72;;;8.00;99.90;;;;;;5008566;28;20450;-73
2021/12/19 12:19:55;;;;;;;15.07;3.55;;;8.10;99.90;;;;;;5054402;28;20036;-73
2021/12/19 12:22:32;;;;;;;13.95;2.63;;;8.10;99.90;;;;;;5043325;28;20102;-73
2021/12/19 12:25:16;;;;;;;13.15;2.63;;;8.00;99.90;;;;;;5073207;28;20492;-74
2021/12/19 12:27:43;;;;;;;23.05;2.80;;;8.10;99.90;;;;;;5052780;28;20057;-74
2021/12/19 12:30:13;;;;;;;16.80;3.28;;;8.10;99.90;;;;;;5043941;28;20510;-74
2021/12/19 12:32:39;;;;;;;23.45;3.35;;;8.10;99.90;;;;;;5062074;28;20599;-74
2021/12/19 12:35:07;;;;;;;17.65;2.97;;;8.10;99.90;;;;;;5045292;28;20133;-73
2021/12/19 12:37:33;;;;;;;19.30;3.40;;;8.10;99.90;;;;;;5054346;28;20084;-73
2021/12/19 12:40:42;;;;;;;21.27;4.35;;;8.10;99.90;;;;;;5054788;28;20127;-74
2021/12/19 12:43:17;;;;;;;21.15;3.17;;;8.10;99.90;;;;;;5055861;28;20414;-73
2021/12/19 12:45:56;;;;;;;20.17;3.50;;;8.10;99.90;;;;;;5044524;28;20405;-73
2021/12/19 12:49:00;;;;;;;21.17;3.50;;;8.10;99.90;;;;;;5053186;28;20053;-74
2021/12/19 12:51:29;;;;;;;21.15;3.03;;;8.10;99.90;;;;;;5034066;28;20059;-73
2021/12/19 12:54:03;;;;;;;17.92;3.47;;;8.10;99.90;;;;;;5072986;28;20049;-74
2021/12/19 12:56:34;;;;;;;13.00;2.97;;;8.20;99.90;;;;;;5072592;28;20045;-74
2021/12/19 12:59:01;;;;;;;23.35;4.15;;;8.20;99.90;;;;;;5048339;28;20053;-74
2021/12/19 13:01:37;;;;;;;18.63;3.72;;;8.20;99.90;;;;;;5064993;28;20123;-74
2021/12/19 13:04:05;;;;;;;16.83;3.90;;;8.20;99.90;;;;;;5047675;28;20041;-74
2021/12/19 13:06:59;;;;;;;23.52;4.07;;;8.20;99.90;;;;;;5039729;28;20048;-74
2021/12/19 13:09:29;;;;;;;18.75;3.05;;;8.20;99.90;;;;;;5058712;28;20129;-73
2021/12/19 13:12:19;;;;;;;20.65;4.38;;;8.20;99.90;;;;;;5053757;28;20056;-74
2021/12/19 13:14:57;;;;;;;17.05;3.13;;;8.20;99.90;;;;;;5049772;28;20070;-74
2021/12/19 13:17:26;;;;;;;22.65;3.47;;;8.20;99.90;;;;;;5064441;28;20381;-74
2021/12/19 13:20:12;;;;;;;24.30;3.88;;;8.20;99.90;;;;;;5045074;28;20044;-74
2021/12/19 13:22:45;;;;;;;21.05;3.63;;;8.30;99.90;;;;;;5064583;28;20098;-74
2021/12/19 13:25:16;;;;;;;18.73;4.00;;;8.20;99.90;;;;;;5064628;28;20049;-74
2021/12/19 13:27:49;;;;;;;16.17;4.85;;;8.20;99.90;;;;;;5064567;28;20130;-74
2021/12/19 13:30:20;;;;;;;25.55;6.13;;;8.20;99.90;;;;;;5047807;28;20040;-73
2021/12/19 13:32:54;;;;;;;26.25;5.10;;;8.20;99.90;;;;;;5064669;28;20045;-74
2021/12/19 13:35:23;;;;;;;22.40;3.92;;;8.20;99.90;;;;;;5048286;28;20036;-74
2021/12/19 13:37:57;;;;;;;20.33;4.57;;;8.20;99.90;;;;;;5049325;28;20063;-74
2021/12/19 13:40:36;;;;;;;19.90;3.95;;;8.20;99.90;;;;;;5056729;28;20055;-73
2021/12/19 13:43:08;;;;;;;28.83;4.43;;;8.20;99.90;;;;;;5058004;28;20049;-73
2021/12/19 13:45:44;;;;;;;23.60;3.95;;;8.30;99.90;;;;;;5056536;28;20055;-74
2021/12/19 13:48:19;;;;;;;18.58;3.72;;;8.30;99.90;;;;;;5056717;28;20518;-74
2021/12/19 13:50:54;;;;;;;21.33;4.00;;;8.20;99.90;;;;;;5075582;28;20037;-75
2021/12/19 13:53:19;;;;;;;22.15;4.28;;;8.20;99.90;;;;;;5057621;28;20048;-74
2021/12/19 13:56:02;;;;;;;24.10;4.30;;;8.20;99.90;;;;;;5047387;28;20480;-75
2021/12/19 13:58:31;;;;;;;22.13;3.40;;;8.20;99.90;;;;;;5045381;28;20055;-74
2021/12/19 14:00:58;;;;;;;22.92;3.95;;;8.20;99.90;;;;;;5064799;28;20094;-74
2021/12/19 14:03:37;;;;;;;23.60;3.45;;;8.30;99.90;;;;;;5056988;28;20052;-75
2021/12/19 14:06:03;;;;;;;17.42;3.08;;;8.30;99.90;;;;;;5057428;28;20464;-74
2021/12/19 14:08:31;;;;;;;26.15;3.30;;;8.20;99.90;;;;;;5054040;28;20120;-74
2021/12/19 14:11:13;;;;;;;24.67;4.10;;;8.30;99.90;;;;;;5044576;28;20126;-74